createdAt,value
2022-08-05T00:01:35.928Z,22.52
2022-08-05T00:04:08.383Z,22.49
2022-08-05T00:06:37.080Z,22.47
2022-08-05T00:09:12.762Z,22.44
2022-08-05T00:11:48.804Z,22.42
2022-08-05T00:14:27.667Z,22.39
2022-08-05T00:16:58.014Z,22.36
2022-08-05T00:19:33.305Z,22.33
2022-08-05T00:22:11.775Z,22.30
2022-08-05T00:24:42.438Z,22.27
2022-08-05T00:27:28.542Z,22.24
2022-08-05T00:30:00.452Z,22.20
2022-08-05T00:32:31.669Z,22.17
2022-08-05T00:35:06.646Z,22.13
2022-08-05T00:37:51.159Z,22.09
2022-08-05T00:40:27.361Z,22.06
2022-08-05T00:43:01.745Z,22.02
2022-08-05T00:45:38.537Z,21.99
2022-08-05T00:48:10.196Z,21.96
2022-08-05T00:50:44.087Z,21.91
2022-08-05T00:53:59.959Z,21.88
2022-08-05T00:56:02.833Z,21.85
2022-08-05T00:58:31.459Z,21.80
2022-08-05T01:00:59.925Z,21.77
2022-08-05T01:03:30.929Z,21.74
2022-08-05T01:06:05.499Z,21.69
2022-08-05T01:08:43.184Z,21.65
2022-08-05T01:11:33.859Z,21.61
2022-08-05T01:14:16.332Z,21.57
2022-08-05T01:16:54.852Z,21.53
2022-08-05T01:19:46.331Z,21.49
2022-08-05T01:22:34.131Z,21.44
2022-08-05T01:25:02.292Z,21.41
2022-08-05T01:28:00.540Z,21.37
2022-08-05T01:30:35.050Z,21.34
2022-08-05T01:33:08.646Z,21.30
2022-08-05T01:35:52.239Z,21.46
2022-08-05T01:38:27.241Z,22.62
2022-08-05T01:41:00.034Z,23.89
2022-08-05T01:43:31.830Z,24.48
2022-08-05T01:46:07.190Z,24.03
2022-08-05T01:48:49.458Z,23.39
2022-08-05T01:51:19.707Z,22.94
2022-08-05T01:53:58.004Z,22.62
2022-08-05T01:58:09.771Z,22.37
2022-08-05T01:59:23.641Z,22.13
2022-08-05T02:01:55.578Z,21.97
2022-08-05T02:04:29.077Z,21.81
2022-08-05T02:06:59.187Z,21.68
2022-08-05T02:09:28.148Z,21.56
2022-08-05T02:12:14.041Z,21.44
2022-08-05T02:14:49.835Z,21.32
2022-08-05T02:18:28.686Z,21.21
2022-08-05T02:20:20.932Z,21.11
2022-08-05T02:23:03.283Z,21.27
2022-08-05T02:25:49.573Z,22.46
2022-08-05T02:28:29.059Z,23.46
2022-08-05T02:31:06.114Z,23.74
2022-08-05T02:33:41.014Z,23.22
2022-08-05T02:36:13.528Z,22.67
2022-08-05T02:38:53.259Z,22.25
2022-08-05T02:41:29.017Z,21.94
2022-08-05T02:44:11.891Z,21.69
2022-08-05T02:46:44.035Z,21.49
2022-08-05T02:49:37.079Z,21.30
2022-08-05T02:52:26.038Z,21.14
2022-08-05T02:55:05.139Z,20.99
2022-08-05T02:58:11.047Z,20.86
2022-08-05T03:00:25.273Z,21.04
2022-08-05T03:02:56.563Z,22.07
2022-08-05T03:06:56.734Z,22.90
2022-08-05T03:08:14.783Z,23.48
2022-08-05T03:11:01.311Z,23.04
2022-08-05T03:13:51.187Z,22.43
2022-08-05T03:16:22.829Z,21.98
2022-08-05T03:18:51.558Z,21.70
2022-08-05T03:21:22.598Z,21.47
2022-08-05T03:23:58.262Z,21.27
2022-08-05T03:26:31.918Z,21.10
2022-08-05T03:29:01.511Z,20.94
2022-08-05T03:31:55.469Z,20.79
2022-08-05T03:34:19.641Z,21.01
2022-08-05T03:36:52.935Z,22.08
2022-08-05T03:39:27.259Z,22.82
2022-08-05T03:41:57.120Z,23.16
2022-08-05T03:44:28.900Z,22.73
2022-08-05T03:46:57.339Z,22.19
2022-08-05T03:49:31.185Z,21.81
2022-08-05T03:52:49.296Z,21.49
2022-08-05T03:56:04.906Z,21.24
2022-08-05T03:58:15.522Z,21.04
2022-08-05T04:00:51.494Z,20.90
2022-08-05T04:03:28.479Z,20.77
2022-08-05T04:05:59.249Z,20.90
2022-08-05T04:08:36.427Z,21.78
2022-08-05T04:11:08.606Z,22.37
2022-08-05T04:13:51.376Z,22.63
2022-08-05T04:16:24.104Z,22.76
2022-08-05T04:18:54.761Z,22.38
2022-08-05T04:22:09.431Z,21.99
2022-08-05T04:24:19.107Z,21.65
2022-08-05T04:26:50.889Z,21.45
2022-08-05T04:29:21.007Z,21.29
2022-08-05T04:31:49.744Z,21.16
2022-08-05T04:34:32.839Z,21.05
2022-08-05T04:37:03.153Z,21.17
2022-08-05T04:39:32.414Z,21.88
2022-08-05T04:42:04.110Z,22.80
2022-08-05T04:44:32.391Z,23.51
2022-08-05T04:47:09.848Z,23.24
2022-08-05T04:50:02.086Z,22.75
2022-08-05T04:52:28.379Z,22.35
2022-08-05T04:54:57.283Z,22.13
2022-08-05T04:57:28.606Z,21.99
2022-08-05T04:59:58.625Z,21.87
2022-08-05T05:02:41.112Z,21.79
2022-08-05T05:05:16.737Z,21.72
2022-08-05T05:08:02.891Z,21.67
2022-08-05T05:10:33.831Z,21.87
2022-08-05T05:13:04.360Z,23.08
2022-08-05T05:15:56.866Z,24.21
2022-08-05T05:18:31.441Z,24.69
2022-08-05T05:21:05.540Z,24.23
2022-08-05T05:24:02.205Z,23.79
2022-08-05T05:26:28.768Z,23.48
2022-08-05T05:29:14.493Z,23.30
2022-08-05T05:31:46.489Z,23.19
2022-08-05T05:34:15.419Z,23.14
2022-08-05T05:36:44.206Z,23.13
2022-08-05T05:39:15.485Z,23.13
2022-08-05T05:41:54.488Z,23.14
2022-08-05T05:44:36.443Z,23.16
2022-08-05T05:47:13.163Z,23.22
2022-08-05T05:49:56.571Z,23.29
2022-08-05T05:52:29.813Z,23.37
2022-08-05T05:55:07.364Z,23.47
2022-08-05T05:57:52.031Z,23.57
2022-08-05T06:00:31.510Z,23.70
2022-08-05T06:03:03.603Z,23.83
2022-08-05T06:05:54.264Z,23.98
2022-08-05T06:08:32.241Z,24.11
2022-08-05T06:11:01.674Z,24.26
2022-08-05T06:13:40.527Z,24.41
2022-08-05T06:16:31.517Z,24.59
2022-08-05T06:19:01.985Z,24.77
2022-08-05T06:21:36.569Z,24.95
2022-08-05T06:24:11.518Z,25.13
2022-08-05T06:26:52.072Z,25.29
2022-08-05T06:29:23.697Z,25.45
2022-08-05T06:32:25.013Z,25.62
2022-08-05T06:34:57.099Z,25.77
2022-08-05T06:37:56.273Z,25.88
2022-08-05T06:40:21.111Z,26.03
2022-08-05T06:42:53.565Z,26.19
2022-08-05T06:45:55.483Z,26.36
2022-08-05T06:48:46.945Z,26.54
2022-08-05T06:51:00.402Z,26.74
2022-08-05T06:53:30.172Z,26.90
2022-08-05T06:56:25.650Z,27.07
2022-08-05T06:58:56.545Z,27.25
2022-08-05T07:01:32.092Z,27.41
2022-08-05T07:04:03.154Z,27.58
2022-08-05T07:06:32.288Z,27.75
2022-08-05T07:09:04.357Z,27.91
2022-08-05T07:11:36.920Z,28.08
2022-08-05T07:14:29.294Z,28.25
2022-08-05T07:18:01.163Z,28.43
2022-08-05T07:20:31.603Z,28.54
2022-08-05T07:22:43.930Z,28.63
2022-08-05T07:25:53.904Z,28.71
2022-08-05T07:28:08.209Z,28.84
2022-08-05T07:30:40.318Z,28.98
2022-08-05T07:33:15.730Z,29.13
2022-08-05T07:36:02.115Z,29.26
2022-08-05T07:38:43.217Z,29.43
2022-08-05T07:42:14.448Z,29.58
2022-08-05T07:44:25.912Z,29.74
2022-08-05T07:46:56.445Z,29.92
2022-08-05T07:49:28.637Z,30.07
2022-08-05T07:51:59.428Z,30.21
2022-08-05T07:54:33.652Z,30.36
2022-08-05T07:57:13.916Z,30.50
2022-08-05T07:59:55.278Z,30.64
2022-08-05T08:02:31.330Z,30.76
2022-08-05T08:05:19.954Z,30.90
2022-08-05T08:08:00.188Z,31.04
2022-08-05T08:10:34.978Z,31.20
2022-08-05T08:13:07.814Z,31.35
2022-08-05T08:16:34.532Z,31.48
2022-08-05T08:18:39.985Z,31.63
2022-08-05T08:21:17.433Z,31.77
2022-08-05T08:24:01.885Z,31.90
2022-08-05T08:26:33.708Z,32.02
2022-08-05T08:29:29.303Z,32.12
2022-08-05T08:31:57.269Z,32.25
2022-08-05T08:34:30.448Z,32.35
2022-08-05T08:37:07.073Z,32.46
2022-08-05T08:39:38.274Z,32.58
2022-08-05T08:42:33.690Z,32.70
2022-08-05T08:45:19.669Z,32.84
2022-08-05T08:48:11.757Z,32.97
2022-08-05T08:51:04.084Z,33.10
2022-08-05T08:53:45.027Z,33.22
2022-08-05T08:56:14.990Z,33.31
2022-08-05T08:58:47.682Z,33.35
2022-08-05T09:01:22.105Z,33.41
2022-08-05T09:03:57.576Z,33.49
2022-08-05T09:06:36.205Z,33.59
2022-08-05T09:09:06.478Z,33.69
2022-08-05T09:11:51.025Z,33.79
2022-08-05T09:14:56.816Z,33.85
2022-08-05T09:17:40.188Z,33.93
2022-08-05T09:20:05.950Z,34.01
2022-08-05T09:23:19.756Z,34.10
2022-08-05T09:26:02.375Z,34.22
2022-08-05T09:28:36.137Z,34.30
2022-08-05T09:31:44.192Z,34.38
2022-08-05T09:34:09.796Z,34.43
2022-08-05T09:36:54.954Z,34.47
2022-08-05T09:39:45.434Z,34.56
2022-08-05T09:42:24.002Z,34.68
2022-08-05T09:46:04.821Z,34.78
2022-08-05T09:47:56.752Z,34.91
2022-08-05T09:50:44.435Z,35.00
2022-08-05T09:53:23.074Z,35.13
2022-08-05T09:56:04.967Z,35.24
2022-08-05T09:58:42.011Z,35.36
2022-08-05T10:01:22.674Z,35.46
2022-08-05T10:04:12.663Z,35.55
2022-08-05T10:06:59.131Z,35.62
2022-08-05T10:09:29.878Z,35.70
2022-08-05T10:12:18.589Z,35.76
2022-08-05T10:15:21.046Z,35.86
2022-08-05T10:18:07.014Z,35.94
2022-08-05T10:20:41.924Z,36.04
2022-08-05T10:23:34.007Z,36.12
2022-08-05T10:26:07.366Z,36.20
2022-08-05T10:28:45.083Z,36.28
2022-08-05T10:32:55.160Z,36.32
2022-08-05T10:34:08.309Z,36.38
2022-08-05T10:36:39.803Z,36.45
2022-08-05T10:39:24.161Z,36.44
2022-08-05T10:42:08.239Z,36.47
2022-08-05T10:44:46.425Z,36.57
2022-08-05T10:47:26.289Z,36.69
2022-08-05T10:50:32.196Z,36.79
2022-08-05T10:53:00.551Z,36.87
2022-08-05T10:55:38.462Z,36.98
2022-08-05T10:58:20.942Z,37.04
2022-08-05T11:00:55.476Z,37.03
2022-08-05T11:03:31.732Z,36.98
2022-08-05T11:06:05.804Z,36.91
2022-08-05T11:08:39.350Z,36.88
2022-08-05T11:11:44.592Z,36.89
2022-08-05T11:14:56.343Z,36.97
2022-08-05T11:17:57.499Z,36.99
2022-08-05T11:20:33.099Z,36.98
2022-08-05T11:23:06.116Z,36.94
2022-08-05T11:26:05.971Z,36.95
2022-08-05T11:28:36.044Z,36.97
2022-08-05T11:31:07.790Z,36.98
2022-08-05T11:33:52.592Z,37.01
2022-08-05T11:36:42.736Z,37.05
2022-08-05T11:39:14.467Z,37.11
2022-08-05T11:42:00.632Z,37.15
2022-08-05T11:44:53.123Z,37.18
2022-08-05T11:47:48.683Z,37.19
2022-08-05T11:50:15.770Z,37.14
2022-08-05T11:52:46.137Z,37.10
2022-08-05T11:55:17.525Z,37.09
2022-08-05T11:58:09.999Z,37.11
2022-08-05T12:00:38.496Z,37.10
2022-08-05T12:03:42.116Z,37.12
2022-08-05T12:06:28.972Z,37.16
2022-08-05T12:09:00.694Z,37.14
2022-08-05T12:11:40.080Z,37.07
2022-08-05T12:14:10.824Z,37.02
2022-08-05T12:16:58.680Z,36.98
2022-08-05T12:20:25.469Z,36.98
2022-08-05T12:22:49.328Z,36.99
2022-08-05T12:25:23.691Z,36.97
2022-08-05T12:27:59.048Z,36.95
2022-08-05T12:30:39.175Z,36.96
2022-08-05T12:33:27.328Z,36.94
2022-08-05T12:35:58.163Z,36.94
2022-08-05T12:38:31.400Z,36.95
2022-08-05T12:41:00.944Z,36.96
2022-08-05T12:43:32.067Z,36.99
2022-08-05T12:46:06.791Z,36.99
2022-08-05T12:48:44.284Z,37.00
2022-08-05T12:52:10.643Z,37.00
2022-08-05T12:54:14.723Z,37.01
2022-08-05T12:57:09.562Z,37.00
2022-08-05T13:01:57.535Z,37.02
2022-08-05T13:02:50.874Z,37.00
2022-08-05T13:05:37.387Z,36.96
2022-08-05T13:08:08.659Z,36.96
2022-08-05T13:10:50.286Z,36.96
2022-08-05T13:14:04.667Z,36.95
2022-08-05T13:16:15.310Z,36.97
2022-08-05T13:18:57.883Z,36.96
2022-08-05T13:21:47.974Z,36.95
2022-08-05T13:24:27.624Z,36.98
2022-08-05T13:27:11.064Z,36.97
2022-08-05T13:30:32.664Z,36.93
2022-08-05T13:32:39.504Z,36.93
2022-08-05T13:35:12.203Z,36.96
2022-08-05T13:37:43.769Z,36.94
2022-08-05T13:40:35.595Z,36.92
2022-08-05T13:43:02.846Z,36.95
2022-08-05T13:45:38.518Z,36.98
2022-08-05T13:48:58.742Z,37.03
2022-08-05T13:51:12.240Z,37.07
2022-08-05T13:53:48.076Z,37.11
2022-08-05T13:56:18.407Z,37.11
2022-08-05T13:58:53.123Z,37.10
2022-08-05T14:01:27.413Z,37.07
2022-08-05T14:04:29.976Z,37.06
2022-08-05T14:07:25.179Z,37.04
2022-08-05T14:09:47.919Z,37.03
2022-08-05T14:12:32.159Z,37.01
2022-08-05T14:16:05.681Z,36.98
2022-08-05T14:17:55.036Z,36.97
2022-08-05T14:20:32.754Z,36.99
2022-08-05T14:23:01.964Z,37.00
2022-08-05T14:25:32.098Z,37.02
2022-08-05T14:28:00.571Z,37.02
2022-08-05T14:30:29.856Z,37.03
2022-08-05T14:32:59.064Z,37.03
2022-08-05T14:35:36.962Z,37.02
2022-08-05T14:38:31.787Z,37.01
2022-08-05T14:41:07.770Z,37.02
2022-08-05T14:43:59.127Z,37.02
2022-08-05T14:46:29.550Z,37.02
2022-08-05T14:49:07.000Z,37.01
2022-08-05T14:51:42.819Z,37.01
2022-08-05T14:54:27.892Z,37.03
2022-08-05T14:56:59.669Z,37.04
2022-08-05T14:59:35.705Z,37.04
2022-08-05T15:02:14.646Z,37.04
2022-08-05T15:04:47.783Z,37.00
2022-08-05T15:08:08.873Z,36.95
2022-08-05T15:10:09.710Z,36.92
2022-08-05T15:12:59.756Z,36.89
2022-08-05T15:15:55.434Z,36.90
2022-08-05T15:18:20.822Z,36.91
2022-08-05T15:20:50.913Z,36.92
2022-08-05T15:23:22.127Z,36.92
2022-08-05T15:25:56.613Z,36.91
2022-08-05T15:28:28.827Z,36.89
2022-08-05T15:31:00.431Z,36.89
2022-08-05T15:34:18.495Z,36.85
2022-08-05T15:36:24.606Z,36.83
2022-08-05T15:41:01.709Z,36.82
2022-08-05T15:41:58.420Z,36.81
2022-08-05T15:44:30.427Z,36.79
2022-08-05T15:47:02.050Z,36.78
2022-08-05T15:49:48.137Z,36.75
2022-08-05T15:52:29.545Z,36.73
2022-08-05T15:55:15.728Z,36.71
2022-08-05T15:57:49.073Z,36.69
2022-08-05T16:00:25.817Z,36.66
2022-08-05T16:03:04.756Z,36.61
2022-08-05T16:05:36.070Z,36.54
2022-08-05T16:08:16.037Z,36.49
2022-08-05T16:10:47.296Z,36.43
2022-08-05T16:13:23.595Z,36.39
2022-08-05T16:15:56.213Z,36.35
2022-08-05T16:18:31.058Z,36.31
2022-08-05T16:21:05.225Z,36.26
2022-08-05T16:23:53.796Z,36.19
2022-08-05T16:26:26.530Z,36.07
2022-08-05T16:28:56.663Z,35.93
2022-08-05T16:31:26.264Z,35.72
2022-08-05T16:34:25.231Z,35.50
2022-08-05T16:37:00.922Z,35.33
2022-08-05T16:40:04.484Z,35.18
2022-08-05T16:42:28.239Z,35.03
2022-08-05T16:45:01.177Z,34.88
2022-08-05T16:47:48.279Z,34.70
2022-08-05T16:50:33.062Z,34.52
2022-08-05T16:53:12.690Z,34.38
2022-08-05T16:55:54.156Z,34.26
2022-08-05T16:58:26.325Z,34.13
2022-08-05T17:00:55.585Z,33.99
2022-08-05T17:03:25.730Z,33.85
2022-08-05T17:05:59.729Z,33.72
2022-08-05T17:08:36.748Z,33.60
2022-08-05T17:11:26.770Z,33.48
2022-08-05T17:14:13.123Z,33.38
2022-08-05T17:16:53.383Z,33.28
2022-08-05T17:19:22.467Z,33.18
2022-08-05T17:21:51.509Z,33.10
2022-08-05T17:24:35.313Z,33.02
2022-08-05T17:27:09.425Z,32.91
2022-08-05T17:29:41.261Z,32.82
2022-08-05T17:32:17.048Z,32.74
2022-08-05T17:34:47.783Z,32.65
2022-08-05T17:37:40.721Z,32.55
2022-08-05T17:40:12.113Z,32.36
2022-08-05T17:42:51.282Z,32.12
2022-08-05T17:45:38.268Z,31.86
2022-08-05T17:48:08.285Z,31.66
2022-08-05T17:50:37.168Z,31.55
2022-08-05T17:53:08.423Z,31.44
2022-08-05T17:55:39.961Z,31.40
2022-08-05T17:58:12.648Z,31.34
2022-08-05T18:00:45.366Z,31.26
2022-08-05T18:03:48.459Z,31.21
2022-08-05T18:06:11.691Z,31.15
2022-08-05T18:08:52.462Z,31.10
2022-08-05T18:11:32.421Z,31.11
2022-08-05T18:14:06.575Z,31.15
2022-08-05T18:16:49.609Z,31.17
2022-08-05T18:19:30.048Z,31.11
2022-08-05T18:22:08.805Z,31.01
2022-08-05T18:24:53.719Z,30.85
2022-08-05T18:27:23.307Z,30.73
2022-08-05T18:29:54.767Z,30.61
2022-08-05T18:32:28.433Z,30.50
2022-08-05T18:34:58.613Z,30.39
2022-08-05T18:37:33.995Z,30.32
2022-08-05T18:41:49.926Z,30.25
2022-08-05T18:43:03.396Z,30.17
2022-08-05T18:45:41.511Z,30.09
2022-08-05T18:48:30.170Z,30.00
2022-08-05T18:52:05.820Z,29.91
2022-08-05T18:54:12.600Z,29.86
2022-08-05T18:56:41.802Z,29.79
2022-08-05T18:59:42.778Z,29.71
2022-08-05T19:02:36.606Z,29.64
2022-08-05T19:06:06.160Z,29.52
2022-08-05T19:07:58.416Z,29.42
2022-08-05T19:10:30.544Z,29.33
2022-08-05T19:12:59.287Z,29.25
2022-08-05T19:15:56.825Z,29.16
2022-08-05T19:18:22.209Z,29.05
2022-08-05T19:20:52.614Z,28.95
2022-08-05T19:24:07.245Z,28.86
2022-08-05T19:26:14.101Z,28.75
2022-08-05T19:28:43.827Z,28.66
2022-08-05T19:31:17.908Z,28.59
2022-08-05T19:33:56.312Z,28.55
2022-08-05T19:36:26.771Z,28.50
2022-08-05T19:39:00.748Z,28.42
2022-08-05T19:41:58.386Z,28.31
2022-08-05T19:44:19.870Z,28.21
2022-08-05T19:46:50.163Z,28.11
2022-08-05T19:49:19.197Z,28.02
2022-08-05T19:52:05.131Z,27.93
2022-08-05T19:54:37.578Z,27.84
2022-08-05T19:57:09.119Z,27.75
2022-08-05T19:59:59.564Z,27.66
2022-08-05T20:02:32.742Z,27.57
2022-08-05T20:05:05.222Z,27.49
2022-08-05T20:07:47.312Z,27.41
2022-08-05T20:10:22.140Z,27.33
2022-08-05T20:12:56.535Z,27.28
2022-08-05T20:15:52.407Z,27.22
2022-08-05T20:18:33.847Z,27.15
2022-08-05T20:21:06.708Z,27.09
2022-08-05T20:23:50.049Z,27.06
2022-08-05T20:26:28.352Z,27.02
2022-08-05T20:29:00.743Z,26.95
2022-08-05T20:31:41.967Z,26.89
2022-08-05T20:34:20.180Z,26.82
2022-08-05T20:36:50.115Z,26.77
2022-08-05T20:39:23.448Z,26.73
2022-08-05T20:41:55.031Z,26.68
2022-08-05T20:44:37.843Z,26.62
2022-08-05T20:47:07.846Z,26.54
2022-08-05T20:49:40.203Z,26.47
2022-08-05T20:52:12.486Z,26.40
2022-08-05T20:55:54.399Z,26.33
2022-08-05T20:57:43.009Z,26.27
2022-08-05T21:00:40.377Z,26.24
2022-08-05T21:07:19.614Z,26.17
2022-08-05T21:09:53.829Z,26.11
2022-08-05T21:12:26.689Z,26.06
2022-08-05T21:14:56.368Z,26.02
2022-08-05T21:17:28.505Z,25.95
2022-08-05T21:19:57.757Z,25.87
2022-08-05T21:22:28.643Z,25.70
2022-08-05T21:24:57.766Z,25.37
2022-08-05T21:27:27.293Z,25.14
2022-08-05T21:29:58.662Z,25.23
2022-08-05T21:32:32.186Z,25.34
2022-08-05T21:35:08.760Z,25.30
2022-08-05T21:37:53.443Z,25.39
2022-08-05T21:40:24.821Z,25.53
2022-08-05T21:42:54.535Z,25.64
2022-08-05T21:58:16.748Z,26.25
2022-08-05T22:00:51.222Z,25.99
2022-08-05T22:03:48.946Z,25.93
2022-08-05T22:06:10.139Z,25.86
2022-08-05T22:08:42.838Z,25.89
2022-08-05T22:11:15.891Z,26.12
2022-08-05T22:14:33.608Z,25.63
2022-08-05T22:18:58.511Z,24.91
2022-08-05T22:21:27.909Z,25.66
2022-08-05T22:24:40.593Z,25.93
2022-08-05T22:27:24.190Z,25.37
2022-08-05T22:30:17.196Z,24.78
2022-08-05T22:32:47.449Z,24.70
2022-08-05T22:35:20.347Z,25.61
2022-08-05T22:38:00.089Z,26.33
2022-08-05T22:40:30.636Z,26.89
2022-08-05T22:43:00.368Z,27.19
2022-08-05T22:45:32.282Z,26.67
2022-08-05T22:48:01.898Z,26.04
2022-08-05T22:50:30.785Z,25.56
2022-08-05T22:52:58.981Z,25.20
2022-08-05T22:55:27.758Z,25.12
2022-08-05T22:58:16.090Z,25.97
2022-08-05T23:00:56.970Z,26.47
2022-08-05T23:03:59.099Z,26.01
2022-08-05T23:06:13.912Z,25.36
2022-08-05T23:08:50.362Z,24.89
2022-08-05T23:11:21.345Z,24.81
2022-08-05T23:13:51.769Z,25.55
2022-08-05T23:16:44.042Z,26.03
2022-08-05T23:19:23.771Z,25.56
2022-08-05T23:21:54.852Z,24.94
2022-08-05T23:24:23.627Z,24.74
2022-08-05T23:26:52.509Z,25.31
2022-08-05T23:29:22.281Z,25.78
2022-08-05T23:31:56.566Z,26.07
2022-08-05T23:34:25.456Z,25.81
2022-08-05T23:36:54.798Z,25.20
2022-08-05T23:39:32.573Z,24.87
2022-08-05T23:42:24.366Z,25.37
2022-08-05T23:44:59.007Z,26.00
2022-08-05T23:47:28.263Z,26.59
2022-08-05T23:50:02.491Z,26.66
2022-08-05T23:52:49.829Z,25.97
2022-08-05T23:55:19.541Z,25.28
2022-08-05T23:57:51.374Z,25.02
